Detroit, Alabama
Current Conditions -  °F | °C
As of 6:35 PM on Friday 21 Nov 2014 (Local Time) from KM40 Reporting Station
Haze Haze  
Wind Chill: 14°   Ceiling: Unl
Heat Index: 14°   Visibility: 5mi
Dew Point:   Wind: 0mph
Humidity: 55%   Direction: NA
Pressure: 30.33"   Gusts: NA
Location:  34.03°N, 88.17°W
Report Text: KM40 220035Z AUTO 00000KT 5SM HZ FEW110 14/05 A3033 RMK AO2
Loading
Personal Weather Stations






























Interactive Weather Map New forecast layout! Learn more

10-Day Weather Forecast

Advertisements
Track Severe Weather on mobile